Time;durP1;ratioP1;P1;durP2;ratioP2;P2;SDS_P1;SDS_P2;PMS_P1;PMS_P2;Temp;Humidity;BMP_temperature;BMP_pressure;BME280_temperature;BME280_humidity;BME280_pressure;Samples;Min_cycle;Max_cycle;Signal;HPM_P1;HPM_P2
2022/10/25 00:00:06;;;;;;;9.30;4.83;;;;;;;13.21;83.02;100557.58;1618319;86;21093;-76
2022/10/25 00:02:51;;;;;;;10.65;5.62;;;;;;;13.19;83.02;100560.66;1618173;86;21699;-76
2022/10/25 00:05:39;;;;;;;10.58;4.83;;;;;;;13.17;83.01;100562.45;1611291;87;21100;-76
2022/10/25 00:08:24;;;;;;;6.30;4.17;;;;;;;13.17;83.03;100570.23;1622682;87;21086;-76
2022/10/25 00:11:14;;;;;;;8.63;4.30;;;;;;;13.15;83.01;100572.84;1618314;87;21137;-76
2022/10/25 00:14:04;;;;;;;9.73;5.05;;;;;;;13.14;83.00;100570.29;1610952;87;21069;-76
2022/10/25 00:16:49;;;;;;;8.10;4.75;;;;;;;13.13;83.02;100570.73;1618109;87;21174;-76
2022/10/25 00:19:34;;;;;;;6.12;4.28;;;;;;;13.13;83.02;100575.92;1626721;88;21486;-76
2022/10/25 00:22:19;;;;;;;5.30;4.12;;;;;;;13.12;83.01;100579.42;1615592;87;21578;-76
2022/10/25 00:25:07;;;;;;;7.58;4.47;;;;;;;13.11;83.04;100584.20;1620438;86;21457;-76
2022/10/25 00:27:52;;;;;;;7.42;4.55;;;;;;;13.11;83.04;100583.35;1623644;86;22092;-76
2022/10/25 00:30:37;;;;;;;8.50;4.90;;;;;;;13.12;83.05;100584.61;1621391;87;21703;-76
2022/10/25 00:33:22;;;;;;;5.80;4.47;;;;;;;13.14;83.08;100585.87;1621518;87;21073;-76
2022/10/25 00:36:15;;;;;;;9.75;5.05;;;;;;;13.14;83.04;100578.08;1621072;87;21108;-76
2022/10/25 00:39:00;;;;;;;11.20;4.97;;;;;;;13.14;83.06;100580.23;1613075;87;21056;-76
2022/10/25 00:41:45;;;;;;;5.33;4.30;;;;;;;13.15;83.06;100584.52;1612185;87;21108;-76
2022/10/25 00:44:42;;;;;;;5.08;4.60;;;;;;;13.15;83.07;100586.27;1620260;87;21611;-76
2022/10/25 00:47:32;;;;;;;6.28;5.05;;;;;;;13.16;83.07;100578.92;1622037;86;21639;-76
2022/10/25 00:50:41;;;;;;;7.42;5.25;;;;;;;13.17;83.10;100577.58;1643563;86;21081;-76
2022/10/25 00:53:31;;;;;;;11.53;5.28;;;;;;;13.15;83.09;100579.33;1651363;85;21068;-76
2022/10/25 00:56:20;;;;;;;7.17;5.12;;;;;;;13.15;83.06;100579.78;1654728;86;20997;-76
2022/10/25 00:59:10;;;;;;;10.70;5.00;;;;;;;13.13;83.12;100577.22;1633509;87;21051;-76
2022/10/25 01:01:55;;;;;;;8.83;5.28;;;;;;;13.13;83.11;100577.22;1526615;85;5001409;-76
2022/10/25 01:04:40;;;;;;;11.15;5.78;;;;;;;13.13;83.11;100580.27;1618682;87;21329;-76
2022/10/25 01:07:26;;;;;;;9.78;5.90;;;;;;;13.11;83.11;100578.16;1660885;85;22492;-76
2022/10/25 01:10:12;;;;;;;6.97;5.83;;;;;;;13.10;83.11;100576.02;1660509;85;21049;-76
2022/10/25 01:13:00;;;;;;;9.25;6.70;;;;;;;13.08;83.10;100570.45;1649478;86;21109;-76
2022/10/25 01:15:56;;;;;;;9.93;5.65;;;;;;;13.04;83.06;100569.68;1646930;85;21052;-76
2022/10/25 01:18:56;;;;;;;;;;;;;;;13.03;83.12;100567.13;1633092;87;21110;-76
2022/10/25 01:22:01;;;;;;;8.80;5.65;;;;;;;12.98;83.14;100573.77;1661078;85;20207;-76
2022/10/25 01:25:16;;;;;;;7.45;5.97;;;;;;;12.93;83.11;100569.14;1654708;84;21545;-76
2022/10/25 01:28:09;;;;;;;9.60;5.80;;;;;;;12.90;83.14;100586.09;1655541;86;21097;-76
2022/10/25 01:31:14;;;;;;;8.53;6.12;;;;;;;12.86;83.12;100576.69;1625904;87;21051;-76
2022/10/25 01:34:28;;;;;;;7.87;5.75;;;;;;;12.83;83.15;100575.02;1642876;86;21097;-76
2022/10/25 01:37:33;;;;;;;12.88;5.55;;;;;;;12.79;83.15;100573.84;1639848;85;21095;-76
2022/10/25 01:40:30;;;;;;;7.20;5.58;;;;;;;12.75;83.15;100573.52;1628643;85;382446;-76
2022/10/25 01:43:26;;;;;;;11.90;6.28;;;;;;;12.73;83.20;100570.11;1654905;86;24261;-76
2022/10/25 01:46:33;;;;;;;9.70;5.72;;;;;;;12.71;83.18;100560.21;1646168;86;21057;-76
2022/10/25 01:49:29;;;;;;;10.63;5.53;;;;;;;12.71;83.20;100564.10;1607738;87;21759;-76
2022/10/25 01:52:20;;;;;;;7.67;5.35;;;;;;;12.70;83.23;100556.77;1612361;88;21081;-76
2022/10/25 01:55:10;;;;;;;8.90;4.97;;;;;;;12.71;83.22;100562.36;1612630;86;21176;-76
2022/10/25 01:58:18;;;;;;;11.73;5.45;;;;;;;12.72;83.24;100561.91;1619560;86;21140;-76
2022/10/25 02:01:40;;;;;;;13.68;5.00;;;;;;;12.73;83.23;100564.91;1616479;87;21126;-76
2022/10/25 02:04:59;;;;;;;6.05;4.50;;;;;;;12.75;83.25;100568.32;1625377;87;21037;-76
2022/10/25 02:08:08;;;;;;;8.95;5.03;;;;;;;12.76;83.27;100564.84;1620338;86;21109;-76
2022/10/25 02:11:17;;;;;;;8.28;4.37;;;;;;;12.76;83.28;100555.75;1629534;87;20985;-76
2022/10/25 02:14:28;;;;;;;10.05;4.80;;;;;;;12.74;83.26;100555.80;1620385;87;21456;-76
2022/10/25 02:17:21;;;;;;;7.00;4.28;;;;;;;12.76;83.33;100559.64;1616817;87;20977;-76
2022/10/25 02:20:08;;;;;;;7.03;4.47;;;;;;;12.78;83.31;100565.65;1615222;87;21331;-76
2022/10/25 02:22:54;;;;;;;10.23;4.17;;;;;;;12.81;83.33;100567.72;1633877;86;21426;-76
2022/10/25 02:25:40;;;;;;;;;;;;;;;12.83;83.34;100562.49;1629510;87;21656;-76
2022/10/25 02:28:29;;;;;;;6.00;4.07;;;;;;;12.84;83.44;100561.16;1601282;88;20464;-76
2022/10/25 02:31:17;;;;;;;8.63;4.05;;;;;;;12.84;83.37;100561.16;1601702;88;21686;-76
2022/10/25 02:34:02;;;;;;;9.65;4.40;;;;;;;12.85;83.36;100571.94;1612167;87;21601;-76
2022/10/25 02:36:54;;;;;;;8.65;4.55;;;;;;;12.85;83.37;100568.49;1610718;88;21808;-76
2022/10/25 02:39:39;;;;;;;8.55;3.72;;;;;;;12.85;83.36;100574.53;1607646;88;21499;-76
2022/10/25 02:42:24;;;;;;;9.78;4.17;;;;;;;12.83;83.34;100571.12;1608870;86;20967;-76
2022/10/25 02:45:10;;;;;;;6.28;3.77;;;;;;;12.82;83.35;100576.36;1612756;86;20930;-76
2022/10/25 02:47:54;;;;;;;5.15;4.62;;;;;;;12.79;83.33;100572.55;1585253;87;21480;-76
2022/10/25 02:50:39;;;;;;;6.67;3.80;;;;;;;12.75;83.42;100567.02;1650897;85;20930;-76
2022/10/25 02:53:25;;;;;;;15.05;4.08;;;;;;;12.74;83.39;100569.21;1648594;84;20973;-76
2022/10/25 02:56:14;;;;;;;8.70;4.53;;;;;;;12.72;83.42;100571.84;1653952;85;21374;-76
2022/10/25 02:58:59;;;;;;;5.97;4.08;;;;;;;12.69;83.42;100571.92;1659587;84;20917;-76
2022/10/25 03:01:44;;;;;;;6.87;3.92;;;;;;;12.66;83.44;100564.22;1664797;85;20977;-76
2022/10/25 03:04:29;;;;;;;6.72;4.22;;;;;;;12.64;83.46;100562.11;1650753;84;21544;-76
2022/10/25 03:07:14;;;;;;;4.75;4.25;;;;;;;12.64;83.49;100563.84;1655458;85;20902;-76
2022/10/25 03:09:59;;;;;;;7.42;4.12;;;;;;;12.63;83.51;100562.14;1651324;86;21522;-76
2022/10/25 03:12:44;;;;;;;8.50;4.25;;;;;;;12.62;83.51;100565.63;1663610;86;21053;-76
2022/10/25 03:15:29;;;;;;;4.20;3.85;;;;;;;12.60;83.55;100567.81;1621582;87;20917;-76
2022/10/25 03:18:15;;;;;;;6.80;3.95;;;;;;;12.60;83.57;100565.22;1656004;86;20973;-76
2022/10/25 03:21:02;;;;;;;7.53;4.20;;;;;;;12.63;83.58;100572.52;1665831;85;20953;-76
2022/10/25 03:23:46;;;;;;;6.50;4.58;;;;;;;12.62;83.60;100569.08;1628135;86;21451;-76
2022/10/25 03:26:32;;;;;;;5.75;3.98;;;;;;;12.62;83.62;100566.48;1655896;84;20981;-76
2022/10/25 03:29:17;;;;;;;6.30;4.67;;;;;;;12.64;83.62;100568.59;1654339;84;21076;-76
2022/10/25 03:32:04;;;;;;;6.90;4.12;;;;;;;12.68;83.65;100571.52;1657381;84;21069;-76
2022/10/25 03:34:49;;;;;;;6.55;4.17;;;;;;;12.69;83.66;100575.81;1647853;86;21178;-76
2022/10/25 03:37:34;;;;;;;6.37;3.98;;;;;;;12.72;83.68;100574.89;1651510;85;21155;-76
2022/10/25 03:40:20;;;;;;;9.23;4.70;;;;;;;12.74;83.70;100573.10;1654349;84;21529;-76
2022/10/25 03:43:05;;;;;;;7.22;4.37;;;;;;;12.76;83.71;100571.32;1663980;84;21155;-79
2022/10/25 03:45:51;;;;;;;5.55;3.70;;;;;;;12.76;83.71;100570.88;1660438;84;21096;-79
2022/10/25 03:48:36;;;;;;;8.23;4.30;;;;;;;12.78;83.73;100574.28;1642820;86;21182;-79
2022/10/25 03:51:21;;;;;;;10.20;4.47;;;;;;;12.79;83.74;100576.44;1617482;86;21092;-79
2022/10/25 03:54:05;;;;;;;6.65;4.37;;;;;;;12.82;83.78;100577.20;1617573;87;21522;-79
2022/10/25 03:56:50;;;;;;;7.97;3.92;;;;;;;12.83;83.78;100575.02;1617803;86;21520;-79
2022/10/25 03:59:36;;;;;;;6.45;3.80;;;;;;;12.85;83.82;100577.58;1613169;87;21147;-76
2022/10/25 04:02:21;;;;;;;9.03;4.20;;;;;;;12.85;83.81;100573.23;1615439;86;21564;-76
2022/10/25 04:05:07;;;;;;;7.37;4.42;;;;;;;12.85;83.80;100570.64;1618452;87;21093;-76
2022/10/25 04:07:52;;;;;;;8.43;4.17;;;;;;;12.85;83.85;100568.49;1617068;86;20959;-76
2022/10/25 04:10:37;;;;;;;7.33;4.25;;;;;;;12.83;83.82;100568.53;1619118;86;20948;-76
2022/10/25 04:13:22;;;;;;;7.75;4.85;;;;;;;12.81;83.82;100566.42;1613693;86;20986;-76
2022/10/25 04:16:09;;;;;;;7.58;4.33;;;;;;;12.80;83.84;100572.50;1616708;86;21467;-76
2022/10/25 04:18:54;;;;;;;8.40;3.83;;;;;;;12.79;83.87;100572.09;1619167;86;20969;-75
2022/10/25 04:21:39;;;;;;;7.05;4.37;;;;;;;12.80;83.89;100572.50;1613975;87;21414;-75
2022/10/25 04:24:24;;;;;;;12.18;4.30;;;;;;;12.80;83.90;100571.66;1618496;86;20940;-75
2022/10/25 04:27:09;;;;;;;7.55;4.28;;;;;;;12.80;83.91;100572.50;1611076;87;20978;-75
2022/10/25 04:29:54;;;;;;;6.33;4.15;;;;;;;12.80;83.91;100566.02;1612578;86;21577;-76
2022/10/25 04:32:39;;;;;;;11.03;4.20;;;;;;;12.79;83.92;100569.95;1622425;86;20950;-76
2022/10/25 04:35:24;;;;;;;10.43;4.10;;;;;;;12.79;83.91;100569.95;1618459;86;21517;-76
2022/10/25 04:38:10;;;;;;;5.45;4.15;;;;;;;12.76;83.91;100566.13;1623549;86;21446;-76
2022/10/25 04:41:07;;;;;;;7.78;3.85;;;;;;;12.74;83.91;100566.62;1620147;87;20937;-76
2022/10/25 04:43:52;;;;;;;8.13;4.40;;;;;;;12.72;83.99;100560.62;1628989;86;21421;-76
2022/10/25 04:46:37;;;;;;;8.33;4.85;;;;;;;12.73;84.00;100561.88;1614478;87;20956;-75
2022/10/25 04:49:22;;;;;;;7.65;4.53;;;;;;;12.72;83.98;100565.36;1636753;84;21004;-75
2022/10/25 04:52:07;;;;;;;4.95;4.15;;;;;;;12.72;84.02;100569.25;1661804;84;20931;-75
2022/10/25 04:54:52;;;;;;;6.15;4.33;;;;;;;12.71;84.02;100574.03;1660651;84;20946;-76
2022/10/25 04:57:37;;;;;;;5.95;3.90;;;;;;;12.72;84.01;100573.59;1662129;84;20992;-76
2022/10/25 05:00:22;;;;;;;8.03;4.20;;;;;;;12.72;84.05;100578.33;1629360;85;20998;-76
2022/10/25 05:03:07;;;;;;;7.80;3.95;;;;;;;12.72;84.04;100582.67;1652246;84;20962;-76
2022/10/25 05:05:52;;;;;;;5.55;3.98;;;;;;;12.71;84.04;100579.22;1651938;86;20945;-76
2022/10/25 05:08:41;;;;;;;8.88;4.40;;;;;;;12.72;84.09;100582.67;1652153;84;20918;-76
2022/10/25 05:11:26;;;;;;;11.65;4.28;;;;;;;12.72;84.09;100575.73;1652611;84;21455;-76
2022/10/25 05:14:11;;;;;;;8.00;4.37;;;;;;;12.72;84.10;100580.92;1652101;86;21423;-76
2022/10/25 05:16:56;;;;;;;6.50;4.72;;;;;;;12.71;84.10;100575.33;1648456;86;20962;-76
2022/10/25 05:19:41;;;;;;;7.08;4.25;;;;;;;12.72;84.15;100577.03;1644549;84;21474;-76
2022/10/25 05:22:26;;;;;;;10.40;5.75;;;;;;;12.74;84.18;100577.00;1656798;84;20946;-76
2022/10/25 05:25:11;;;;;;;6.42;4.12;;;;;;;12.74;84.22;100581.73;1658561;84;20949;-76
2022/10/25 05:27:56;;;;;;;6.95;4.00;;;;;;;12.75;84.21;100570.47;1660693;84;20914;-75
2022/10/25 05:30:43;;;;;;;6.83;4.17;;;;;;;12.78;84.24;100578.17;1636039;87;20968;-75
2022/10/25 05:33:27;;;;;;;10.35;4.70;;;;;;;12.77;84.22;100577.77;1643797;85;23655;-75
2022/10/25 05:36:14;;;;;;;9.38;4.55;;;;;;;12.79;84.23;100586.37;1657310;84;20930;-75
2022/10/25 05:39:00;;;;;;;8.43;5.12;;;;;;;12.81;84.25;100594.11;1624239;87;20964;-75
2022/10/25 05:41:45;;;;;;;11.00;5.30;;;;;;;12.81;84.24;100596.70;1653090;84;20910;-75
2022/10/25 05:44:29;;;;;;;9.95;5.70;;;;;;;12.80;84.25;100604.09;1654329;84;20934;-77
2022/10/25 05:47:14;;;;;;;8.85;5.65;;;;;;;12.82;84.29;100607.50;1646437;84;20922;-76
2022/10/25 05:50:00;;;;;;;6.80;4.30;;;;;;;12.81;84.26;100605.79;1644591;85;20966;-76
2022/10/25 05:52:45;;;;;;;8.28;5.40;;;;;;;12.79;84.31;100603.23;1650556;84;21383;-76
2022/10/25 05:55:32;;;;;;;8.78;4.85;;;;;;;12.81;84.32;100604.05;1654706;83;20918;-76
2022/10/25 05:58:17;;;;;;;11.78;5.05;;;;;;;12.82;84.33;100607.50;1646899;84;20934;-76
2022/10/25 06:01:02;;;;;;;6.30;4.60;;;;;;;12.82;84.34;100607.05;1655985;84;21450;-76
2022/10/25 06:03:52;;;;;;;6.80;4.90;;;;;;;12.84;84.37;100618.25;1650928;86;21394;-76
2022/10/25 06:06:38;;;;;;;9.33;5.22;;;;;;;12.86;84.37;100615.61;1652408;85;21391;-76
2022/10/25 06:09:23;;;;;;;6.55;5.15;;;;;;;12.86;84.41;100616.46;1654234;85;21774;-76
2022/10/25 06:12:08;;;;;;;8.88;6.05;;;;;;;12.88;84.41;100621.61;1654490;85;21029;-76
2022/10/25 06:14:53;;;;;;;12.80;6.28;;;;;;;12.88;84.43;100628.95;1659324;85;21485;-76
2022/10/25 06:17:38;;;;;;;12.53;4.97;;;;;;;12.90;84.43;100621.98;1632684;85;21291;-76
2022/10/25 06:20:23;;;;;;;9.38;5.75;;;;;;;12.92;84.46;100623.24;1656708;85;20949;-76
2022/10/25 06:23:08;;;;;;;11.33;5.47;;;;;;;12.95;84.46;100635.29;1655598;84;21005;-76
2022/10/25 06:26:00;;;;;;;6.95;4.60;;;;;;;12.96;84.46;100633.10;1649916;84;21436;-75
2022/10/25 06:28:45;;;;;;;8.08;4.95;;;;;;;13.00;84.51;100637.33;1658979;84;20907;-75
2022/10/25 06:31:32;;;;;;;9.78;6.00;;;;;;;13.02;84.54;100645.89;1654209;84;20930;-75
2022/10/25 06:34:17;;;;;;;14.18;5.22;;;;;;;13.06;84.58;100649.67;1652094;84;20933;-75
2022/10/25 06:37:02;;;;;;;6.87;5.25;;;;;;;13.10;84.60;100646.55;1626724;87;20960;-75
2022/10/25 06:39:47;;;;;;;8.25;5.28;;;;;;;13.14;84.60;100654.22;1653563;84;20947;-75
2022/10/25 06:42:32;;;;;;;8.73;4.78;;;;;;;13.16;84.58;100651.17;1647813;85;20969;-75
2022/10/25 06:45:17;;;;;;;12.53;5.67;;;;;;;13.18;84.60;100655.88;1654086;85;21415;-75
2022/10/25 06:48:02;;;;;;;9.45;5.72;;;;;;;13.21;84.64;100660.14;1656765;84;20966;-75
2022/10/25 06:50:47;;;;;;;10.13;6.10;;;;;;;13.23;84.67;100665.70;1643455;86;21499;-75
2022/10/25 06:53:32;;;;;;;11.08;5.62;;;;;;;13.25;84.66;100665.22;1622551;86;20942;-75
2022/10/25 06:56:17;;;;;;;8.05;5.80;;;;;;;13.27;84.69;100665.17;1677731;84;20953;-75
2022/10/25 06:59:02;;;;;;;14.30;6.55;;;;;;;13.30;84.72;100670.29;1677766;84;20932;-75
2022/10/25 07:01:47;;;;;;;11.45;5.65;;;;;;;13.34;84.72;100676.25;1652656;85;21442;-75
2022/10/25 07:04:32;;;;;;;16.32;5.80;;;;;;;13.37;84.73;100681.37;1677616;84;20884;-75
2022/10/25 07:07:16;;;;;;;11.73;5.75;;;;;;;13.38;84.70;100683.92;1677681;84;20957;-75
2022/10/25 07:10:01;;;;;;;9.80;5.58;;;;;;;13.39;84.75;100692.13;1668707;84;20884;-75
2022/10/25 07:12:46;;;;;;;7.67;5.05;;;;;;;13.42;84.76;100696.39;1672807;84;20977;-75
2022/10/25 07:15:31;;;;;;;9.68;5.70;;;;;;;13.44;84.78;100694.16;1674257;83;20943;-76
2022/10/25 07:18:17;;;;;;;8.45;5.33;;;;;;;13.47;84.80;100694.08;1677854;83;20914;-76
2022/10/25 07:21:14;;;;;;;12.35;6.10;;;;;;;13.51;84.84;100696.14;1678672;83;20950;-76
2022/10/25 07:23:58;;;;;;;11.97;6.00;;;;;;;13.56;84.85;100704.64;1678367;83;20962;-76
2022/10/25 07:26:43;;;;;;;13.80;6.20;;;;;;;13.62;84.89;100708.37;1672697;84;21391;-76
2022/10/25 07:29:28;;;;;;;14.43;5.78;;;;;;;13.68;84.89;100695.22;1670479;84;20921;-76
2022/10/25 07:32:13;;;;;;;7.53;5.15;;;;;;;13.75;84.92;100697.20;1671339;83;20961;-76
2022/10/25 07:34:58;;;;;;;6.97;5.17;;;;;;;13.81;84.92;100703.08;1632842;86;20942;-76
2022/10/25 07:37:43;;;;;;;9.45;6.20;;;;;;;13.84;84.86;100704.74;1649771;85;20926;-76
2022/10/25 07:40:28;;;;;;;8.78;5.35;;;;;;;13.83;84.90;100697.39;1624356;86;20953;-76
2022/10/25 07:43:13;;;;;;;13.93;5.62;;;;;;;13.86;84.90;100710.75;1612954;87;21482;-76
2022/10/25 07:45:58;;;;;;;11.83;5.05;;;;;;;13.86;84.94;100709.45;1671679;84;20921;-76
2022/10/25 07:48:43;;;;;;;9.58;4.42;;;;;;;13.84;84.90;100706.89;1676229;84;20993;-76
2022/10/25 07:51:28;;;;;;;12.53;4.97;;;;;;;13.82;84.95;100701.34;1635370;85;20936;-76
2022/10/25 07:54:13;;;;;;;9.18;5.25;;;;;;;13.81;85.01;100697.03;1624556;87;20946;-76
2022/10/25 07:56:58;;;;;;;9.95;5.60;;;;;;;13.81;85.03;100691.38;1635583;87;20905;-76
2022/10/25 07:59:43;;;;;;;12.10;5.33;;;;;;;13.81;85.04;100691.38;1635599;85;21429;-76
2022/10/25 08:02:28;;;;;;;17.25;5.83;;;;;;;13.83;85.10;100695.24;1630362;87;21474;-76
2022/10/25 08:05:13;;;;;;;7.62;4.80;;;;;;;13.87;85.13;100695.56;1642258;85;20948;-76
2022/10/25 08:07:58;;;;;;;13.43;5.47;;;;;;;13.94;85.15;100700.14;1636524;87;20962;-76
2022/10/25 08:10:43;;;;;;;12.98;5.80;;;;;;;14.01;85.18;100705.13;1639933;87;20969;-76
2022/10/25 08:13:28;;;;;;;9.70;5.00;;;;;;;14.07;85.16;100702.77;1638487;85;20906;-76
2022/10/25 08:16:13;;;;;;;8.20;4.70;;;;;;;14.11;85.17;100705.68;1626198;87;20956;-76
2022/10/25 08:18:58;;;;;;;6.65;5.03;;;;;;;14.15;85.18;100712.05;1631142;87;21395;-76
2022/10/25 08:21:43;;;;;;;10.78;4.72;;;;;;;14.23;85.26;100706.62;1634902;85;20961;-76
2022/10/25 08:24:29;;;;;;;8.55;4.65;;;;;;;14.35;85.31;100710.16;1628479;87;20928;-76
2022/10/25 08:27:13;;;;;;;14.90;5.15;;;;;;;14.49;85.32;100711.94;1626119;87;20921;-75
2022/10/25 08:29:58;;;;;;;12.88;6.20;;;;;;;14.61;85.35;100710.67;1615268;86;20984;-75
2022/10/25 08:32:43;;;;;;;8.23;4.90;;;;;;;14.70;85.30;100720.80;1616125;87;21504;-75
2022/10/25 08:35:28;;;;;;;9.53;5.08;;;;;;;14.75;85.32;100720.66;1620066;88;21064;-75
2022/10/25 08:38:13;;;;;;;10.68;5.83;;;;;;;14.77;85.27;100715.81;1624116;87;21104;-75
2022/10/25 08:41:10;;;;;;;12.47;5.58;;;;;;;14.80;85.29;100718.77;1617739;86;21068;-75
2022/10/25 08:44:10;;;;;;;11.30;5.92;;;;;;;14.83;85.35;100710.86;1618351;87;21093;-75
2022/10/25 08:47:26;;;;;;;8.65;5.42;;;;;;;14.98;85.45;100719.93;1610600;86;21143;-75
2022/10/25 08:50:16;;;;;;;12.68;5.25;;;;;;;15.10;85.37;100717.75;1613964;86;21029;-75
2022/10/25 08:53:06;;;;;;;14.50;5.03;;;;;;;15.17;85.37;100711.44;1649241;85;21120;-75
2022/10/25 08:55:51;;;;;;;8.45;4.53;;;;;;;15.28;85.43;100715.44;1647289;84;21089;-75
2022/10/25 08:58:45;;;;;;;12.88;5.12;;;;;;;15.37;85.43;100721.64;1653114;84;21094;-75
2022/10/25 09:01:47;;;;;;;11.08;6.10;;;;;;;15.40;85.44;100730.20;1647372;84;21504;-75
2022/10/25 09:04:33;;;;;;;11.85;5.03;;;;;;;15.42;85.43;100722.34;1650550;83;21161;-75
2022/10/25 09:07:42;;;;;;;13.00;5.40;;;;;;;15.40;85.37;100730.20;1648883;85;21372;-75
2022/10/25 09:10:54;;;;;;;7.78;4.80;;;;;;;15.42;85.39;100728.85;1644705;85;20938;-75
2022/10/25 09:14:02;;;;;;;8.33;4.62;;;;;;;15.54;85.54;100730.59;1649579;85;20974;-75
2022/10/25 09:16:53;;;;;;;15.18;4.70;;;;;;;15.62;85.44;100735.98;1650802;84;20973;-75
2022/10/25 09:20:06;;;;;;;9.20;4.70;;;;;;;15.61;85.28;100727.77;1644033;85;20922;-75
2022/10/25 09:23:02;;;;;;;6.17;4.03;;;;;;;15.67;85.49;100732.32;1649911;85;21835;-75
2022/10/25 09:26:22;;;;;;;16.70;4.90;;;;;;;15.74;85.39;100739.02;1651521;85;20950;-75
2022/10/25 09:29:28;;;;;;;10.58;4.58;;;;;;;15.79;85.40;100744.92;1650840;84;20950;-75
2022/10/25 09:32:24;;;;;;;7.90;4.20;;;;;;;15.85;85.47;100746.47;1653558;85;21010;-76
2022/10/25 09:35:26;;;;;;;5.72;4.08;;;;;;;15.86;85.37;100749.02;1651422;85;20981;-76
2022/10/25 09:38:28;;;;;;;12.70;4.70;;;;;;;15.84;85.40;100746.92;1653680;84;20978;-76
2022/10/25 09:41:33;;;;;;;7.97;3.30;;;;;;;15.86;85.43;100748.17;1652418;85;20939;-76
2022/10/25 09:44:35;;;;;;;6.50;3.12;;;;;;;15.83;85.28;100750.88;1651813;85;20969;-76
2022/10/25 09:47:40;;;;;;;7.50;3.05;;;;;;;15.77;85.25;100749.34;1651262;85;20957;-76
2022/10/25 09:50:35;;;;;;;8.38;3.20;;;;;;;15.75;85.32;100758.97;1630763;85;21057;-76
2022/10/25 09:53:20;;;;;;;5.50;3.05;;;;;;;15.74;85.29;100754.66;1654101;85;21156;-76
2022/10/25 09:56:06;;;;;;;8.95;3.02;;;;;;;15.74;85.29;100757.27;1643311;84;21555;-76
2022/10/25 09:58:51;;;;;;;5.00;2.83;;;;;;;15.71;85.26;100756.08;1645042;86;21518;-76
2022/10/25 10:01:39;;;;;;;7.08;3.30;;;;;;;15.71;85.31;100752.16;1648891;84;21078;-76
2022/10/25 10:04:37;;;;;;;6.62;2.60;;;;;;;15.73;85.29;100760.78;1648698;85;21138;-76
2022/10/25 10:07:34;;;;;;;9.85;3.08;;;;;;;15.74;85.29;100755.11;1644700;86;21463;-76
2022/10/25 10:10:29;;;;;;;5.95;2.65;;;;;;;15.76;85.25;100759.83;1645671;84;21093;-76
2022/10/25 10:13:37;;;;;;;5.10;2.85;;;;;;;15.74;85.23;100761.63;1641358;86;21094;-76
2022/10/25 10:16:35;;;;;;;8.65;2.98;;;;;;;15.73;85.18;100758.63;1652251;86;21072;-75
2022/10/25 10:19:28;;;;;;;5.00;2.65;;;;;;;15.70;85.18;100760.04;1628857;85;21096;-75
2022/10/25 10:22:16;;;;;;;7.40;2.50;;;;;;;15.69;85.15;100763.09;1528057;87;5000880;-75
2022/10/25 10:25:03;;;;;;;5.37;2.55;;;;;;;15.68;84.98;100763.15;1666673;84;21066;-75
2022/10/25 10:27:51;;;;;;;5.95;2.60;;;;;;;15.68;85.13;100758.79;1669962;83;21124;-75
2022/10/25 10:30:37;;;;;;;9.93;3.50;;;;;;;15.66;85.08;100763.20;1676384;83;21049;-75
2022/10/25 10:33:25;;;;;;;;;;;;;;;15.64;85.06;100766.31;1672821;84;21064;-75
2022/10/25 10:36:26;;;;;;;5.92;2.10;;;;;;;15.60;84.93;100760.80;1654379;84;20132;-75
2022/10/25 10:39:22;;;;;;;5.50;2.52;;;;;;;15.57;85.01;100762.70;1649043;84;21566;-75
2022/10/25 10:42:21;;;;;;;3.27;1.90;;;;;;;15.51;84.97;100757.20;1642891;86;21403;-75
2022/10/25 10:45:12;;;;;;;3.58;2.15;;;;;;;15.47;84.94;100759.52;1636294;86;21411;-75
2022/10/25 10:47:58;;;;;;;8.48;2.47;;;;;;;15.42;84.92;100766.64;1681177;84;20930;-75
2022/10/25 10:50:49;;;;;;;12.98;2.60;;;;;;;15.37;84.91;100764.63;1675057;83;21592;-75
2022/10/25 10:53:35;;;;;;;5.35;2.05;;;;;;;15.34;84.92;100767.34;1672496;83;20975;-75
2022/10/25 10:56:22;;;;;;;7.78;2.87;;;;;;;15.30;84.94;100769.64;1679156;83;20913;-75
2022/10/25 10:59:29;;;;;;;8.68;2.40;;;;;;;15.30;84.93;100770.50;1676493;83;20934;-75
2022/10/25 11:02:28;;;;;;;6.53;1.92;;;;;;;15.31;84.94;100773.95;1671705;84;20918;-75
2022/10/25 11:05:33;;;;;;;8.00;2.10;;;;;;;15.31;84.93;100768.30;1666329;84;21343;-75
2022/10/25 11:08:20;;;;;;;4.85;2.27;;;;;;;15.30;84.90;100767.89;1669342;84;20933;-75
2022/10/25 11:11:22;;;;;;;8.28;2.05;;;;;;;15.28;84.85;100771.00;1676602;83;21362;-75
2022/10/25 11:14:13;;;;;;;7.87;2.00;;;;;;;15.28;84.84;100769.70;1676037;84;21470;-75
2022/10/25 11:17:15;;;;;;;4.25;1.85;;;;;;;15.22;84.76;100769.45;1653546;84;21463;-75
2022/10/25 11:20:05;;;;;;;3.75;1.57;;;;;;;15.18;84.73;100771.75;1668202;84;20929;-76
2022/10/25 11:23:05;;;;;;;5.75;2.02;;;;;;;15.21;84.80;100771.65;1674363;84;21457;-76
2022/10/25 11:26:03;;;;;;;2.83;1.87;;;;;;;15.28;84.86;100772.30;1677627;84;21534;-75
2022/10/25 11:28:59;;;;;;;4.78;1.80;;;;;;;15.33;84.78;100774.30;1637751;85;20974;-75
2022/10/25 11:32:31;;;;;;;10.38;2.00;;;;;;;15.39;84.76;100774.10;1668453;84;20935;-75
2022/10/25 11:35:24;;;;;;;11.00;1.62;;;;;;;15.44;84.71;100773.95;1677595;84;20974;-75
2022/10/25 11:38:43;;;;;;;6.87;2.25;;;;;;;15.51;84.72;100770.23;1685239;83;21396;-75
2022/10/25 11:41:53;;;;;;;3.25;1.62;;;;;;;15.54;84.63;100766.23;1678209;84;20904;-75
2022/10/25 11:45:01;;;;;;;5.62;1.75;;;;;;;15.56;84.61;100767.02;1678366;83;21418;-76
2022/10/25 11:48:15;;;;;;;7.33;1.80;;;;;;;15.62;84.66;100769.88;1669319;83;20966;-76
2022/10/25 11:51:22;;;;;;;6.10;1.95;;;;;;;15.66;84.60;100771.02;1665804;83;39285;-76
2022/10/25 11:54:30;;;;;;;9.45;1.62;;;;;;;15.70;84.64;100770.02;1683994;83;20961;-76
2022/10/25 11:57:52;;;;;;;5.28;1.62;;;;;;;15.75;84.48;100772.46;1681404;83;20917;-76
2022/10/25 12:00:57;;;;;;;4.62;1.87;;;;;;;15.79;84.46;100772.30;1678334;83;20960;-76
2022/10/25 12:04:03;;;;;;;3.65;1.62;;;;;;;15.82;84.43;100773.95;1677096;83;20933;-76
2022/10/25 12:07:23;;;;;;;7.10;2.27;;;;;;;15.84;84.33;100779.52;1669686;84;20969;-76
2022/10/25 12:10:17;;;;;;;6.22;1.72;;;;;;;15.88;84.32;100781.56;1678377;84;20925;-76
2022/10/25 12:13:12;;;;;;;2.40;1.57;;;;;;;15.91;84.28;100784.52;1679823;83;21384;-76
2022/10/25 12:15:58;;;;;;;7.53;1.43;;;;;;;15.92;84.21;100784.46;1675906;84;21561;-76
2022/10/25 12:18:50;;;;;;;4.45;1.20;;;;;;;15.92;84.18;100783.61;1673579;84;26111;-76
2022/10/25 12:21:46;;;;;;;5.25;1.50;;;;;;;15.89;84.13;100788.03;1665043;84;20933;-76
2022/10/25 12:24:44;;;;;;;2.47;1.17;;;;;;;15.88;84.08;100790.23;1673812;84;20906;-76
2022/10/25 12:27:30;;;;;;;2.20;1.50;;;;;;;15.88;84.13;100786.33;1674023;83;21376;-75
2022/10/25 12:30:17;;;;;;;4.50;1.55;;;;;;;15.88;84.10;100788.94;1673206;84;20972;-76
2022/10/25 12:33:37;;;;;;;2.27;1.30;;;;;;;15.92;84.05;100788.83;1677121;84;20954;-76
2022/10/25 12:36:44;;;;;;;4.08;1.50;;;;;;;15.93;84.00;100790.08;1670909;83;20922;-76
2022/10/25 12:39:43;;;;;;;6.00;1.30;;;;;;;15.96;83.89;100786.06;1648530;84;20967;-76
2022/10/25 12:42:42;;;;;;;6.03;1.15;;;;;;;16.01;83.91;100791.97;1649339;84;21337;-76
2022/10/25 12:46:05;;;;;;;5.67;1.55;;;;;;;16.07;83.83;100798.72;1652572;86;20986;-76
2022/10/25 12:49:11;;;;;;;5.67;1.87;;;;;;;16.06;83.74;100795.71;1648415;84;21054;-76
2022/10/25 12:52:16;;;;;;;2.65;1.20;;;;;;;16.01;83.61;100795.88;1650171;84;20962;-76
2022/10/25 12:55:26;;;;;;;7.85;1.27;;;;;;;16.01;83.60;100792.41;1649074;84;21406;-76
2022/10/25 12:58:27;;;;;;;3.37;1.12;;;;;;;16.02;83.61;100787.14;1652522;84;20926;-76
2022/10/25 13:01:32;;;;;;;5.42;1.27;;;;;;;16.06;83.54;100798.32;1644323;85;21446;-76
2022/10/25 13:04:41;;;;;;;4.95;1.05;;;;;;;16.07;83.59;100794.36;1654965;84;20972;-76
2022/10/25 13:07:30;;;;;;;3.67;1.30;;;;;;;16.12;83.54;100798.92;1652383;84;20989;-76
2022/10/25 13:10:19;;;;;;;1.98;1.15;;;;;;;16.14;83.50;100792.34;1648796;84;20953;-76
2022/10/25 13:13:32;;;;;;;3.02;1.40;;;;;;;16.14;83.45;100789.73;1636100;86;21018;-76
2022/10/25 13:16:32;;;;;;;2.90;1.22;;;;;;;16.10;83.33;100797.30;1624561;87;20917;-76